sensor_id;sensor_type;location;lat;lon;timestamp;P1;durP1;ratioP1;P2;durP2;ratioP2
52386;SDS011;38317;53.084;6.960;2023-09-07T00:01:39;2.60;;;1.60;;
52386;SDS011;38317;53.084;6.960;2023-09-07T00:04:05;2.55;;;1.58;;
52386;SDS011;38317;53.084;6.960;2023-09-07T00:06:31;3.35;;;1.65;;
52386;SDS011;38317;53.084;6.960;2023-09-07T00:08:59;7.25;;;1.65;;
52386;SDS011;38317;53.084;6.960;2023-09-07T00:11:25;5.45;;;2.20;;
52386;SDS011;38317;53.084;6.960;2023-09-07T00:13:51;4.78;;;2.10;;
52386;SDS011;38317;53.084;6.960;2023-09-07T00:16:17;4.88;;;1.90;;
52386;SDS011;38317;53.084;6.960;2023-09-07T00:18:44;3.13;;;1.60;;
52386;SDS011;38317;53.084;6.960;2023-09-07T00:21:10;3.95;;;1.77;;
52386;SDS011;38317;53.084;6.960;2023-09-07T00:23:36;3.10;;;1.80;;
52386;SDS011;38317;53.084;6.960;2023-09-07T00:26:02;4.38;;;1.73;;
52386;SDS011;38317;53.084;6.960;2023-09-07T00:28:28;6.75;;;1.90;;
52386;SDS011;38317;53.084;6.960;2023-09-07T00:30:54;4.22;;;1.98;;
52386;SDS011;38317;53.084;6.960;2023-09-07T00:33:20;5.13;;;1.85;;
52386;SDS011;38317;53.084;6.960;2023-09-07T00:35:46;4.18;;;1.98;;
52386;SDS011;38317;53.084;6.960;2023-09-07T00:38:12;4.45;;;2.00;;
52386;SDS011;38317;53.084;6.960;2023-09-07T00:40:42;3.58;;;1.90;;
52386;SDS011;38317;53.084;6.960;2023-09-07T00:43:08;3.53;;;1.98;;
52386;SDS011;38317;53.084;6.960;2023-09-07T00:45:34;5.78;;;2.05;;
52386;SDS011;38317;53.084;6.960;2023-09-07T00:48:00;5.82;;;2.22;;
52386;SDS011;38317;53.084;6.960;2023-09-07T00:50:27;3.88;;;2.17;;
52386;SDS011;38317;53.084;6.960;2023-09-07T00:52:53;4.28;;;2.35;;
52386;SDS011;38317;53.084;6.960;2023-09-07T00:55:20;4.82;;;2.30;;
52386;SDS011;38317;53.084;6.960;2023-09-07T00:57:47;3.83;;;1.90;;
52386;SDS011;38317;53.084;6.960;2023-09-07T01:00:13;5.07;;;2.10;;
52386;SDS011;38317;53.084;6.960;2023-09-07T01:02:40;6.55;;;2.58;;
52386;SDS011;38317;53.084;6.960;2023-09-07T01:05:10;5.50;;;2.47;;
52386;SDS011;38317;53.084;6.960;2023-09-07T01:07:43;4.95;;;2.08;;
52386;SDS011;38317;53.084;6.960;2023-09-07T01:10:10;2.88;;;2.05;;
52386;SDS011;38317;53.084;6.960;2023-09-07T01:12:36;5.18;;;2.30;;
52386;SDS011;38317;53.084;6.960;2023-09-07T01:15:02;4.15;;;2.08;;
52386;SDS011;38317;53.084;6.960;2023-09-07T01:17:29;6.88;;;2.10;;
52386;SDS011;38317;53.084;6.960;2023-09-07T01:19:56;5.97;;;1.90;;
52386;SDS011;38317;53.084;6.960;2023-09-07T01:22:24;3.38;;;2.00;;
52386;SDS011;38317;53.084;6.960;2023-09-07T01:24:50;5.22;;;2.17;;
52386;SDS011;38317;53.084;6.960;2023-09-07T01:27:17;3.78;;;2.03;;
52386;SDS011;38317;53.084;6.960;2023-09-07T01:29:43;3.95;;;2.08;;
52386;SDS011;38317;53.084;6.960;2023-09-07T01:32:09;5.35;;;2.38;;
52386;SDS011;38317;53.084;6.960;2023-09-07T01:34:36;4.97;;;2.05;;
52386;SDS011;38317;53.084;6.960;2023-09-07T01:37:02;3.40;;;1.88;;
52386;SDS011;38317;53.084;6.960;2023-09-07T01:39:28;4.10;;;2.28;;
52386;SDS011;38317;53.084;6.960;2023-09-07T01:41:54;4.30;;;2.40;;
52386;SDS011;38317;53.084;6.960;2023-09-07T01:44:20;4.40;;;2.20;;
52386;SDS011;38317;53.084;6.960;2023-09-07T01:46:47;4.70;;;2.10;;
52386;SDS011;38317;53.084;6.960;2023-09-07T01:49:13;3.97;;;2.28;;
52386;SDS011;38317;53.084;6.960;2023-09-07T01:51:39;4.03;;;2.60;;
52386;SDS011;38317;53.084;6.960;2023-09-07T01:54:05;3.65;;;2.17;;
52386;SDS011;38317;53.084;6.960;2023-09-07T01:56:31;4.20;;;2.30;;
52386;SDS011;38317;53.084;6.960;2023-09-07T01:58:57;3.63;;;2.30;;
52386;SDS011;38317;53.084;6.960;2023-09-07T02:01:24;3.17;;;2.13;;
52386;SDS011;38317;53.084;6.960;2023-09-07T02:03:50;4.25;;;2.30;;
52386;SDS011;38317;53.084;6.960;2023-09-07T02:06:16;3.42;;;2.17;;
52386;SDS011;38317;53.084;6.960;2023-09-07T02:08:43;7.10;;;2.38;;
52386;SDS011;38317;53.084;6.960;2023-09-07T02:11:09;5.18;;;1.92;;
52386;SDS011;38317;53.084;6.960;2023-09-07T02:13:35;4.97;;;2.35;;
52386;SDS011;38317;53.084;6.960;2023-09-07T02:16:05;5.20;;;2.35;;
52386;SDS011;38317;53.084;6.960;2023-09-07T02:18:31;4.75;;;2.47;;
52386;SDS011;38317;53.084;6.960;2023-09-07T02:21:04;5.97;;;2.35;;
52386;SDS011;38317;53.084;6.960;2023-09-07T02:23:31;4.03;;;2.50;;
52386;SDS011;38317;53.084;6.960;2023-09-07T02:25:57;4.05;;;2.50;;
52386;SDS011;38317;53.084;6.960;2023-09-07T02:28:23;5.13;;;2.67;;
52386;SDS011;38317;53.084;6.960;2023-09-07T02:30:50;4.97;;;2.72;;
52386;SDS011;38317;53.084;6.960;2023-09-07T02:33:16;4.60;;;2.40;;
52386;SDS011;38317;53.084;6.960;2023-09-07T02:35:42;4.35;;;2.53;;
52386;SDS011;38317;53.084;6.960;2023-09-07T02:38:08;3.58;;;2.30;;
52386;SDS011;38317;53.084;6.960;2023-09-07T02:40:41;4.30;;;2.70;;
52386;SDS011;38317;53.084;6.960;2023-09-07T02:45:33;6.85;;;2.40;;
52386;SDS011;38317;53.084;6.960;2023-09-07T02:47:59;5.53;;;2.65;;
52386;SDS011;38317;53.084;6.960;2023-09-07T02:50:25;5.45;;;2.65;;
52386;SDS011;38317;53.084;6.960;2023-09-07T02:52:52;4.43;;;2.80;;
52386;SDS011;38317;53.084;6.960;2023-09-07T02:55:18;5.45;;;3.17;;
52386;SDS011;38317;53.084;6.960;2023-09-07T02:57:44;5.38;;;2.97;;
52386;SDS011;38317;53.084;6.960;2023-09-07T03:00:10;4.47;;;2.70;;
52386;SDS011;38317;53.084;6.960;2023-09-07T03:02:36;6.07;;;2.53;;
52386;SDS011;38317;53.084;6.960;2023-09-07T03:05:03;4.25;;;2.60;;
52386;SDS011;38317;53.084;6.960;2023-09-07T03:07:30;5.75;;;2.65;;
52386;SDS011;38317;53.084;6.960;2023-09-07T03:09:56;5.15;;;2.90;;
52386;SDS011;38317;53.084;6.960;2023-09-07T03:12:22;5.05;;;2.78;;
52386;SDS011;38317;53.084;6.960;2023-09-07T03:14:48;5.45;;;3.30;;
52386;SDS011;38317;53.084;6.960;2023-09-07T03:17:16;6.45;;;3.33;;
52386;SDS011;38317;53.084;6.960;2023-09-07T03:19:42;5.50;;;3.40;;
52386;SDS011;38317;53.084;6.960;2023-09-07T03:22:09;5.68;;;2.92;;
52386;SDS011;38317;53.084;6.960;2023-09-07T03:24:35;4.90;;;2.90;;
52386;SDS011;38317;53.084;6.960;2023-09-07T03:27:01;7.45;;;3.30;;
52386;SDS011;38317;53.084;6.960;2023-09-07T03:29:27;5.40;;;3.13;;
52386;SDS011;38317;53.084;6.960;2023-09-07T03:31:53;7.10;;;3.25;;
52386;SDS011;38317;53.084;6.960;2023-09-07T03:34:19;5.82;;;3.25;;
52386;SDS011;38317;53.084;6.960;2023-09-07T03:36:46;5.57;;;3.40;;
52386;SDS011;38317;53.084;6.960;2023-09-07T03:39:12;6.30;;;3.33;;
52386;SDS011;38317;53.084;6.960;2023-09-07T03:41:38;6.65;;;3.50;;
52386;SDS011;38317;53.084;6.960;2023-09-07T03:44:04;5.22;;;3.15;;
52386;SDS011;38317;53.084;6.960;2023-09-07T03:46:30;6.63;;;3.40;;
52386;SDS011;38317;53.084;6.960;2023-09-07T03:48:56;6.82;;;3.35;;
52386;SDS011;38317;53.084;6.960;2023-09-07T03:51:22;5.65;;;3.25;;
52386;SDS011;38317;53.084;6.960;2023-09-07T03:53:48;5.20;;;3.47;;
52386;SDS011;38317;53.084;6.960;2023-09-07T03:56:14;5.20;;;3.28;;
52386;SDS011;38317;53.084;6.960;2023-09-07T03:58:41;4.93;;;3.40;;
52386;SDS011;38317;53.084;6.960;2023-09-07T04:01:07;7.50;;;3.80;;
52386;SDS011;38317;53.084;6.960;2023-09-07T04:03:33;6.88;;;3.30;;
52386;SDS011;38317;53.084;6.960;2023-09-07T04:05:59;7.57;;;3.50;;
52386;SDS011;38317;53.084;6.960;2023-09-07T04:08:25;10.90;;;3.50;;
52386;SDS011;38317;53.084;6.960;2023-09-07T04:10:51;5.82;;;3.50;;
52386;SDS011;38317;53.084;6.960;2023-09-07T04:13:17;7.13;;;3.55;;
52386;SDS011;38317;53.084;6.960;2023-09-07T04:15:44;6.75;;;3.90;;
52386;SDS011;38317;53.084;6.960;2023-09-07T04:18:11;7.43;;;3.63;;
52386;SDS011;38317;53.084;6.960;2023-09-07T04:20:38;4.97;;;3.15;;
52386;SDS011;38317;53.084;6.960;2023-09-07T04:23:04;5.22;;;3.30;;
52386;SDS011;38317;53.084;6.960;2023-09-07T04:25:31;5.18;;;3.47;;
52386;SDS011;38317;53.084;6.960;2023-09-07T04:27:57;6.60;;;3.78;;
52386;SDS011;38317;53.084;6.960;2023-09-07T04:30:24;6.45;;;3.70;;
52386;SDS011;38317;53.084;6.960;2023-09-07T04:32:50;7.43;;;3.42;;
52386;SDS011;38317;53.084;6.960;2023-09-07T04:35:16;7.22;;;3.78;;
52386;SDS011;38317;53.084;6.960;2023-09-07T04:37:43;7.57;;;3.75;;
52386;SDS011;38317;53.084;6.960;2023-09-07T04:40:09;7.00;;;3.85;;
52386;SDS011;38317;53.084;6.960;2023-09-07T04:42:35;6.75;;;3.97;;
52386;SDS011;38317;53.084;6.960;2023-09-07T04:45:04;7.00;;;3.70;;
52386;SDS011;38317;53.084;6.960;2023-09-07T04:47:30;6.53;;;3.58;;
52386;SDS011;38317;53.084;6.960;2023-09-07T04:49:57;6.72;;;3.65;;
52386;SDS011;38317;53.084;6.960;2023-09-07T04:52:23;6.35;;;3.60;;
52386;SDS011;38317;53.084;6.960;2023-09-07T04:54:49;5.85;;;3.78;;
52386;SDS011;38317;53.084;6.960;2023-09-07T04:57:18;8.85;;;3.75;;
52386;SDS011;38317;53.084;6.960;2023-09-07T04:59:44;7.15;;;3.80;;
52386;SDS011;38317;53.084;6.960;2023-09-07T05:02:10;6.32;;;3.70;;
52386;SDS011;38317;53.084;6.960;2023-09-07T05:04:37;7.53;;;4.13;;
52386;SDS011;38317;53.084;6.960;2023-09-07T05:07:03;6.05;;;3.97;;
52386;SDS011;38317;53.084;6.960;2023-09-07T05:09:30;6.68;;;4.18;;
52386;SDS011;38317;53.084;6.960;2023-09-07T05:11:56;6.15;;;3.83;;
52386;SDS011;38317;53.084;6.960;2023-09-07T05:14:23;7.95;;;4.43;;
52386;SDS011;38317;53.084;6.960;2023-09-07T05:16:49;8.55;;;4.28;;
52386;SDS011;38317;53.084;6.960;2023-09-07T05:19:15;7.50;;;4.05;;
52386;SDS011;38317;53.084;6.960;2023-09-07T05:21:42;6.72;;;3.97;;
52386;SDS011;38317;53.084;6.960;2023-09-07T05:24:08;7.93;;;4.40;;
52386;SDS011;38317;53.084;6.960;2023-09-07T05:26:34;7.32;;;4.10;;
52386;SDS011;38317;53.084;6.960;2023-09-07T05:29:00;6.90;;;4.00;;
52386;SDS011;38317;53.084;6.960;2023-09-07T05:31:26;6.63;;;4.30;;
52386;SDS011;38317;53.084;6.960;2023-09-07T05:33:52;8.23;;;4.22;;
52386;SDS011;38317;53.084;6.960;2023-09-07T05:36:18;7.10;;;3.75;;
52386;SDS011;38317;53.084;6.960;2023-09-07T05:38:44;5.95;;;3.85;;
52386;SDS011;38317;53.084;6.960;2023-09-07T05:41:11;7.10;;;4.35;;
52386;SDS011;38317;53.084;6.960;2023-09-07T05:43:37;8.13;;;4.18;;
52386;SDS011;38317;53.084;6.960;2023-09-07T05:46:03;6.05;;;3.83;;
52386;SDS011;38317;53.084;6.960;2023-09-07T05:48:29;7.30;;;3.97;;
52386;SDS011;38317;53.084;6.960;2023-09-07T05:50:55;5.90;;;4.05;;
52386;SDS011;38317;53.084;6.960;2023-09-07T05:53:22;8.05;;;4.15;;
52386;SDS011;38317;53.084;6.960;2023-09-07T05:55:49;6.57;;;3.88;;
52386;SDS011;38317;53.084;6.960;2023-09-07T05:58:16;7.28;;;3.83;;
52386;SDS011;38317;53.084;6.960;2023-09-07T06:00:42;6.80;;;4.40;;
52386;SDS011;38317;53.084;6.960;2023-09-07T06:03:08;6.65;;;4.05;;
52386;SDS011;38317;53.084;6.960;2023-09-07T06:05:35;9.30;;;4.32;;
52386;SDS011;38317;53.084;6.960;2023-09-07T06:08:02;6.63;;;4.15;;
52386;SDS011;38317;53.084;6.960;2023-09-07T06:10:28;6.82;;;4.60;;
52386;SDS011;38317;53.084;6.960;2023-09-07T06:12:55;6.80;;;4.10;;
52386;SDS011;38317;53.084;6.960;2023-09-07T06:15:21;6.03;;;3.80;;
52386;SDS011;38317;53.084;6.960;2023-09-07T06:17:47;7.00;;;4.15;;
52386;SDS011;38317;53.084;6.960;2023-09-07T06:20:14;7.78;;;4.43;;
52386;SDS011;38317;53.084;6.960;2023-09-07T06:22:41;6.63;;;4.47;;
52386;SDS011;38317;53.084;6.960;2023-09-07T06:25:07;7.47;;;3.72;;
52386;SDS011;38317;53.084;6.960;2023-09-07T06:27:33;10.02;;;4.85;;
52386;SDS011;38317;53.084;6.960;2023-09-07T06:29:59;7.53;;;4.38;;
52386;SDS011;38317;53.084;6.960;2023-09-07T06:32:25;6.70;;;4.35;;
52386;SDS011;38317;53.084;6.960;2023-09-07T06:34:51;6.72;;;4.60;;
52386;SDS011;38317;53.084;6.960;2023-09-07T06:37:17;7.55;;;4.40;;
52386;SDS011;38317;53.084;6.960;2023-09-07T06:39:43;8.82;;;4.68;;
52386;SDS011;38317;53.084;6.960;2023-09-07T06:42:09;8.25;;;4.85;;
52386;SDS011;38317;53.084;6.960;2023-09-07T06:44:36;10.23;;;4.65;;
52386;SDS011;38317;53.084;6.960;2023-09-07T06:47:02;6.82;;;4.53;;
52386;SDS011;38317;53.084;6.960;2023-09-07T06:49:28;7.30;;;4.28;;
52386;SDS011;38317;53.084;6.960;2023-09-07T06:51:55;8.05;;;4.47;;
52386;SDS011;38317;53.084;6.960;2023-09-07T06:54:21;6.72;;;4.20;;
52386;SDS011;38317;53.084;6.960;2023-09-07T06:56:47;7.43;;;4.40;;
52386;SDS011;38317;53.084;6.960;2023-09-07T06:59:13;7.80;;;4.75;;
52386;SDS011;38317;53.084;6.960;2023-09-07T07:01:40;7.13;;;4.88;;
52386;SDS011;38317;53.084;6.960;2023-09-07T07:04:06;7.78;;;4.55;;
52386;SDS011;38317;53.084;6.960;2023-09-07T07:06:34;7.60;;;4.63;;
52386;SDS011;38317;53.084;6.960;2023-09-07T07:09:00;7.57;;;4.50;;
52386;SDS011;38317;53.084;6.960;2023-09-07T07:11:26;7.07;;;4.53;;
52386;SDS011;38317;53.084;6.960;2023-09-07T07:13:52;7.63;;;5.00;;
52386;SDS011;38317;53.084;6.960;2023-09-07T07:16:18;8.63;;;5.28;;
52386;SDS011;38317;53.084;6.960;2023-09-07T07:18:44;8.80;;;5.18;;
52386;SDS011;38317;53.084;6.960;2023-09-07T07:21:10;8.02;;;4.75;;
52386;SDS011;38317;53.084;6.960;2023-09-07T07:23:36;8.35;;;5.50;;
52386;SDS011;38317;53.084;6.960;2023-09-07T07:26:02;7.43;;;5.03;;
52386;SDS011;38317;53.084;6.960;2023-09-07T07:28:28;6.90;;;4.57;;
52386;SDS011;38317;53.084;6.960;2023-09-07T07:30:55;8.80;;;4.97;;
52386;SDS011;38317;53.084;6.960;2023-09-07T07:33:21;7.25;;;4.93;;
52386;SDS011;38317;53.084;6.960;2023-09-07T07:35:47;8.65;;;5.53;;
52386;SDS011;38317;53.084;6.960;2023-09-07T07:38:13;6.82;;;4.70;;
52386;SDS011;38317;53.084;6.960;2023-09-07T07:40:40;9.15;;;4.82;;
52386;SDS011;38317;53.084;6.960;2023-09-07T07:43:07;7.75;;;5.40;;
52386;SDS011;38317;53.084;6.960;2023-09-07T07:45:35;8.15;;;5.03;;
52386;SDS011;38317;53.084;6.960;2023-09-07T07:48:03;8.18;;;5.13;;
52386;SDS011;38317;53.084;6.960;2023-09-07T07:50:36;7.63;;;4.90;;
52386;SDS011;38317;53.084;6.960;2023-09-07T07:53:03;6.85;;;4.50;;
52386;SDS011;38317;53.084;6.960;2023-09-07T07:55:29;7.15;;;4.70;;
52386;SDS011;38317;53.084;6.960;2023-09-07T07:57:55;10.10;;;4.57;;
52386;SDS011;38317;53.084;6.960;2023-09-07T08:00:22;7.63;;;4.22;;
52386;SDS011;38317;53.084;6.960;2023-09-07T08:02:48;7.93;;;3.78;;
52386;SDS011;38317;53.084;6.960;2023-09-07T08:05:14;6.57;;;4.28;;
52386;SDS011;38317;53.084;6.960;2023-09-07T08:07:40;12.85;;;4.93;;
52386;SDS011;38317;53.084;6.960;2023-09-07T08:10:06;9.32;;;4.78;;
52386;SDS011;38317;53.084;6.960;2023-09-07T08:12:32;8.82;;;4.00;;
52386;SDS011;38317;53.084;6.960;2023-09-07T08:14:58;6.90;;;4.30;;
52386;SDS011;38317;53.084;6.960;2023-09-07T08:17:24;8.32;;;4.13;;
52386;SDS011;38317;53.084;6.960;2023-09-07T08:19:51;5.57;;;3.67;;
52386;SDS011;38317;53.084;6.960;2023-09-07T08:22:21;6.47;;;3.92;;
52386;SDS011;38317;53.084;6.960;2023-09-07T08:24:47;6.30;;;3.67;;
52386;SDS011;38317;53.084;6.960;2023-09-07T08:27:14;6.32;;;4.15;;
52386;SDS011;38317;53.084;6.960;2023-09-07T08:29:43;9.55;;;4.32;;
52386;SDS011;38317;53.084;6.960;2023-09-07T08:32:16;5.57;;;3.53;;
52386;SDS011;38317;53.084;6.960;2023-09-07T08:34:42;5.45;;;3.58;;
52386;SDS011;38317;53.084;6.960;2023-09-07T08:37:08;6.82;;;3.47;;
52386;SDS011;38317;53.084;6.960;2023-09-07T08:39:34;7.22;;;3.55;;
52386;SDS011;38317;53.084;6.960;2023-09-07T08:42:07;5.63;;;3.70;;
52386;SDS011;38317;53.084;6.960;2023-09-07T08:44:34;6.00;;;3.70;;
52386;SDS011;38317;53.084;6.960;2023-09-07T08:47:02;6.20;;;3.78;;
52386;SDS011;38317;53.084;6.960;2023-09-07T08:49:30;7.63;;;3.25;;
52386;SDS011;38317;53.084;6.960;2023-09-07T08:51:58;9.02;;;4.35;;
52386;SDS011;38317;53.084;6.960;2023-09-07T08:54:25;7.35;;;3.75;;
52386;SDS011;38317;53.084;6.960;2023-09-07T08:56:52;5.60;;;3.10;;
52386;SDS011;38317;53.084;6.960;2023-09-07T08:59:18;5.22;;;2.80;;
52386;SDS011;38317;53.084;6.960;2023-09-07T09:01:44;5.68;;;3.30;;
52386;SDS011;38317;53.084;6.960;2023-09-07T09:04:10;5.68;;;3.03;;
52386;SDS011;38317;53.084;6.960;2023-09-07T09:06:36;7.15;;;2.75;;
52386;SDS011;38317;53.084;6.960;2023-09-07T09:09:02;5.22;;;3.10;;
52386;SDS011;38317;53.084;6.960;2023-09-07T09:11:32;5.18;;;3.03;;
52386;SDS011;38317;53.084;6.960;2023-09-07T09:14:07;5.10;;;3.00;;
52386;SDS011;38317;53.084;6.960;2023-09-07T09:16:33;4.78;;;3.00;;
52386;SDS011;38317;53.084;6.960;2023-09-07T09:18:59;5.85;;;3.10;;
52386;SDS011;38317;53.084;6.960;2023-09-07T09:21:26;6.65;;;3.30;;
52386;SDS011;38317;53.084;6.960;2023-09-07T09:23:53;7.43;;;3.10;;
52386;SDS011;38317;53.084;6.960;2023-09-07T09:26:20;7.00;;;2.88;;
52386;SDS011;38317;53.084;6.960;2023-09-07T09:28:46;5.97;;;2.80;;
52386;SDS011;38317;53.084;6.960;2023-09-07T09:31:12;8.15;;;3.13;;
52386;SDS011;38317;53.084;6.960;2023-09-07T09:33:39;6.00;;;2.90;;
52386;SDS011;38317;53.084;6.960;2023-09-07T09:36:06;4.13;;;2.50;;
52386;SDS011;38317;53.084;6.960;2023-09-07T09:38:32;5.40;;;2.67;;
52386;SDS011;38317;53.084;6.960;2023-09-07T09:40:58;5.95;;;2.70;;
52386;SDS011;38317;53.084;6.960;2023-09-07T09:43:25;5.25;;;2.67;;
52386;SDS011;38317;53.084;6.960;2023-09-07T09:45:51;4.90;;;2.70;;
52386;SDS011;38317;53.084;6.960;2023-09-07T09:48:21;4.38;;;2.45;;
52386;SDS011;38317;53.084;6.960;2023-09-07T09:50:47;5.45;;;2.80;;
52386;SDS011;38317;53.084;6.960;2023-09-07T09:53:17;7.75;;;2.38;;
52386;SDS011;38317;53.084;6.960;2023-09-07T09:55:48;5.47;;;2.90;;
52386;SDS011;38317;53.084;6.960;2023-09-07T09:58:14;4.70;;;2.70;;
52386;SDS011;38317;53.084;6.960;2023-09-07T10:00:51;5.90;;;2.20;;
52386;SDS011;38317;53.084;6.960;2023-09-07T10:03:24;5.28;;;2.58;;
52386;SDS011;38317;53.084;6.960;2023-09-07T10:05:54;5.38;;;2.42;;
52386;SDS011;38317;53.084;6.960;2023-09-07T10:08:20;8.30;;;2.70;;
52386;SDS011;38317;53.084;6.960;2023-09-07T10:10:48;4.43;;;2.50;;
52386;SDS011;38317;53.084;6.960;2023-09-07T10:13:14;5.78;;;2.50;;
52386;SDS011;38317;53.084;6.960;2023-09-07T10:15:42;4.40;;;2.42;;
52386;SDS011;38317;53.084;6.960;2023-09-07T10:18:12;4.93;;;2.33;;
52386;SDS011;38317;53.084;6.960;2023-09-07T10:23:14;4.55;;;2.13;;
52386;SDS011;38317;53.084;6.960;2023-09-07T10:25:41;6.30;;;2.30;;
52386;SDS011;38317;53.084;6.960;2023-09-07T10:28:20;6.18;;;2.42;;
52386;SDS011;38317;53.084;6.960;2023-09-07T10:30:57;6.20;;;2.58;;
52386;SDS011;38317;53.084;6.960;2023-09-07T10:33:23;5.35;;;2.40;;
52386;SDS011;38317;53.084;6.960;2023-09-07T10:35:49;5.95;;;2.50;;
52386;SDS011;38317;53.084;6.960;2023-09-07T10:38:15;5.20;;;2.25;;
52386;SDS011;38317;53.084;6.960;2023-09-07T10:40:44;4.10;;;2.05;;
52386;SDS011;38317;53.084;6.960;2023-09-07T10:43:13;5.03;;;2.20;;
52386;SDS011;38317;53.084;6.960;2023-09-07T10:45:43;6.57;;;2.20;;
52386;SDS011;38317;53.084;6.960;2023-09-07T10:48:10;4.03;;;2.28;;
52386;SDS011;38317;53.084;6.960;2023-09-07T10:50:46;5.43;;;2.13;;
52386;SDS011;38317;53.084;6.960;2023-09-07T10:55:58;4.20;;;2.10;;
52386;SDS011;38317;53.084;6.960;2023-09-07T10:58:34;4.93;;;2.13;;
52386;SDS011;38317;53.084;6.960;2023-09-07T11:01:00;3.70;;;1.90;;
52386;SDS011;38317;53.084;6.960;2023-09-07T11:03:28;4.93;;;2.20;;
52386;SDS011;38317;53.084;6.960;2023-09-07T11:08:39;8.18;;;2.22;;
52386;SDS011;38317;53.084;6.960;2023-09-07T11:11:07;5.65;;;2.33;;
52386;SDS011;38317;53.084;6.960;2023-09-07T11:13:34;3.97;;;1.98;;
52386;SDS011;38317;53.084;6.960;2023-09-07T11:16:00;4.10;;;2.20;;
52386;SDS011;38317;53.084;6.960;2023-09-07T11:18:27;3.95;;;2.08;;
52386;SDS011;38317;53.084;6.960;2023-09-07T11:20:53;4.30;;;1.95;;
52386;SDS011;38317;53.084;6.960;2023-09-07T11:23:20;3.97;;;1.98;;
52386;SDS011;38317;53.084;6.960;2023-09-07T11:25:50;5.03;;;2.20;;
52386;SDS011;38317;53.084;6.960;2023-09-07T11:28:17;5.72;;;2.20;;
52386;SDS011;38317;53.084;6.960;2023-09-07T11:30:50;4.85;;;2.47;;
52386;SDS011;38317;53.084;6.960;2023-09-07T11:33:16;3.78;;;2.03;;
52386;SDS011;38317;53.084;6.960;2023-09-07T11:35:43;3.90;;;2.10;;
52386;SDS011;38317;53.084;6.960;2023-09-07T11:38:12;4.45;;;2.17;;
52386;SDS011;38317;53.084;6.960;2023-09-07T11:40:38;5.32;;;2.22;;
52386;SDS011;38317;53.084;6.960;2023-09-07T11:43:04;5.30;;;1.90;;
52386;SDS011;38317;53.084;6.960;2023-09-07T11:45:30;3.70;;;2.15;;
52386;SDS011;38317;53.084;6.960;2023-09-07T11:47:57;6.80;;;2.30;;
52386;SDS011;38317;53.084;6.960;2023-09-07T11:50:23;3.92;;;2.17;;
52386;SDS011;38317;53.084;6.960;2023-09-07T11:52:50;3.80;;;1.90;;
52386;SDS011;38317;53.084;6.960;2023-09-07T11:55:16;6.38;;;2.20;;
52386;SDS011;38317;53.084;6.960;2023-09-07T11:57:43;4.15;;;2.00;;
52386;SDS011;38317;53.084;6.960;2023-09-07T12:00:10;5.15;;;2.22;;
52386;SDS011;38317;53.084;6.960;2023-09-07T12:02:36;6.40;;;2.20;;
52386;SDS011;38317;53.084;6.960;2023-09-07T12:05:03;3.85;;;2.20;;
52386;SDS011;38317;53.084;6.960;2023-09-07T12:07:30;4.25;;;2.13;;
52386;SDS011;38317;53.084;6.960;2023-09-07T12:09:56;4.38;;;2.28;;
52386;SDS011;38317;53.084;6.960;2023-09-07T12:12:23;5.25;;;2.45;;
52386;SDS011;38317;53.084;6.960;2023-09-07T12:14:49;3.85;;;2.08;;
52386;SDS011;38317;53.084;6.960;2023-09-07T12:17:15;3.83;;;2.20;;
52386;SDS011;38317;53.084;6.960;2023-09-07T12:19:41;3.30;;;2.08;;
52386;SDS011;38317;53.084;6.960;2023-09-07T12:22:11;4.25;;;1.85;;
52386;SDS011;38317;53.084;6.960;2023-09-07T12:24:37;4.03;;;1.98;;
52386;SDS011;38317;53.084;6.960;2023-09-07T12:27:03;6.03;;;2.15;;
52386;SDS011;38317;53.084;6.960;2023-09-07T12:29:29;4.07;;;2.00;;
52386;SDS011;38317;53.084;6.960;2023-09-07T12:31:55;5.25;;;1.95;;
52386;SDS011;38317;53.084;6.960;2023-09-07T12:34:22;4.00;;;2.55;;
52386;SDS011;38317;53.084;6.960;2023-09-07T12:36:48;5.90;;;2.40;;
52386;SDS011;38317;53.084;6.960;2023-09-07T12:39:14;5.05;;;2.13;;
52386;SDS011;38317;53.084;6.960;2023-09-07T12:41:40;3.75;;;2.05;;
52386;SDS011;38317;53.084;6.960;2023-09-07T12:44:06;3.75;;;1.95;;
52386;SDS011;38317;53.084;6.960;2023-09-07T12:46:33;5.45;;;1.90;;
52386;SDS011;38317;53.084;6.960;2023-09-07T12:48:59;4.25;;;2.00;;
52386;SDS011;38317;53.084;6.960;2023-09-07T12:51:25;3.70;;;2.08;;
52386;SDS011;38317;53.084;6.960;2023-09-07T12:53:51;4.80;;;1.77;;
52386;SDS011;38317;53.084;6.960;2023-09-07T12:56:17;3.85;;;2.10;;
52386;SDS011;38317;53.084;6.960;2023-09-07T12:58:44;4.00;;;2.03;;
52386;SDS011;38317;53.084;6.960;2023-09-07T13:01:10;2.92;;;1.85;;
52386;SDS011;38317;53.084;6.960;2023-09-07T13:03:40;4.43;;;2.10;;
52386;SDS011;38317;53.084;6.960;2023-09-07T13:06:06;3.45;;;1.98;;
52386;SDS011;38317;53.084;6.960;2023-09-07T13:08:32;3.92;;;2.20;;
52386;SDS011;38317;53.084;6.960;2023-09-07T13:10:58;3.17;;;1.92;;
52386;SDS011;38317;53.084;6.960;2023-09-07T13:13:24;5.45;;;2.17;;
52386;SDS011;38317;53.084;6.960;2023-09-07T13:15:54;5.60;;;2.20;;
52386;SDS011;38317;53.084;6.960;2023-09-07T13:18:20;4.57;;;2.10;;
52386;SDS011;38317;53.084;6.960;2023-09-07T13:20:46;5.50;;;2.28;;
52386;SDS011;38317;53.084;6.960;2023-09-07T13:23:15;4.53;;;2.10;;
52386;SDS011;38317;53.084;6.960;2023-09-07T13:25:41;4.63;;;2.10;;
52386;SDS011;38317;53.084;6.960;2023-09-07T13:28:07;5.28;;;2.17;;
52386;SDS011;38317;53.084;6.960;2023-09-07T13:30:33;3.90;;;2.10;;
52386;SDS011;38317;53.084;6.960;2023-09-07T13:32:59;3.90;;;1.98;;
52386;SDS011;38317;53.084;6.960;2023-09-07T13:35:26;5.05;;;1.90;;
52386;SDS011;38317;53.084;6.960;2023-09-07T13:37:53;4.68;;;1.75;;
52386;SDS011;38317;53.084;6.960;2023-09-07T13:40:19;3.90;;;1.80;;
52386;SDS011;38317;53.084;6.960;2023-09-07T13:42:49;5.20;;;2.00;;
52386;SDS011;38317;53.084;6.960;2023-09-07T13:45:15;5.75;;;1.60;;
52386;SDS011;38317;53.084;6.960;2023-09-07T13:47:41;4.55;;;1.95;;
52386;SDS011;38317;53.084;6.960;2023-09-07T13:50:07;3.40;;;1.70;;
52386;SDS011;38317;53.084;6.960;2023-09-07T13:52:33;3.70;;;1.73;;
52386;SDS011;38317;53.084;6.960;2023-09-07T13:55:00;3.97;;;1.83;;
52386;SDS011;38317;53.084;6.960;2023-09-07T13:57:26;7.53;;;1.90;;
52386;SDS011;38317;53.084;6.960;2023-09-07T13:59:52;3.83;;;1.98;;
52386;SDS011;38317;53.084;6.960;2023-09-07T14:02:18;5.10;;;1.98;;
52386;SDS011;38317;53.084;6.960;2023-09-07T14:04:44;4.47;;;1.67;;
52386;SDS011;38317;53.084;6.960;2023-09-07T14:07:11;4.22;;;2.00;;
52386;SDS011;38317;53.084;6.960;2023-09-07T14:09:38;3.17;;;1.70;;
52386;SDS011;38317;53.084;6.960;2023-09-07T14:12:04;3.88;;;1.65;;
52386;SDS011;38317;53.084;6.960;2023-09-07T14:14:30;4.15;;;1.90;;
52386;SDS011;38317;53.084;6.960;2023-09-07T14:16:56;3.05;;;1.70;;
52386;SDS011;38317;53.084;6.960;2023-09-07T14:19:23;4.63;;;1.80;;
52386;SDS011;38317;53.084;6.960;2023-09-07T14:21:49;5.82;;;1.80;;
52386;SDS011;38317;53.084;6.960;2023-09-07T14:24:15;2.92;;;1.80;;
52386;SDS011;38317;53.084;6.960;2023-09-07T14:26:42;5.75;;;2.00;;
52386;SDS011;38317;53.084;6.960;2023-09-07T14:29:08;5.03;;;1.73;;
52386;SDS011;38317;53.084;6.960;2023-09-07T14:31:34;3.92;;;1.98;;
52386;SDS011;38317;53.084;6.960;2023-09-07T14:34:01;3.67;;;1.80;;
52386;SDS011;38317;53.084;6.960;2023-09-07T14:36:27;4.38;;;1.73;;
52386;SDS011;38317;53.084;6.960;2023-09-07T14:38:53;2.90;;;1.63;;
52386;SDS011;38317;53.084;6.960;2023-09-07T14:41:19;3.30;;;1.70;;
52386;SDS011;38317;53.084;6.960;2023-09-07T14:43:47;3.83;;;1.80;;
52386;SDS011;38317;53.084;6.960;2023-09-07T14:46:13;3.67;;;1.65;;
52386;SDS011;38317;53.084;6.960;2023-09-07T14:48:39;2.97;;;1.67;;
52386;SDS011;38317;53.084;6.960;2023-09-07T14:51:06;3.88;;;1.73;;
52386;SDS011;38317;53.084;6.960;2023-09-07T14:53:32;2.92;;;1.70;;
52386;SDS011;38317;53.084;6.960;2023-09-07T14:55:58;3.47;;;1.70;;